Time;durP1;ratioP1;P1;durP2;ratioP2;P2;SDS_P1;SDS_P2;PMS_P1;PMS_P2;Temp;Humidity;BMP_temperature;BMP_pressure;BME280_temperature;BME280_humidity;BME280_pressure;Samples;Min_cycle;Max_cycle;Signal;HPM_P1;HPM_P2
2022/01/29 10:51:54;;;;;;;2.30;1.27;;;;;;;5.16;90.15;99888.34;5107254;28;20564;-84
2022/01/29 10:54:22;;;;;;;2.40;1.30;;;;;;;5.52;86.78;99870.78;5090415;28;38712;-81
2022/01/29 10:56:59;;;;;;;1.63;1.20;;;;;;;6.17;83.93;99903.25;5108394;28;41783;-84
2022/01/29 10:59:28;;;;;;;1.60;1.50;;;;;;;6.46;81.49;99890.09;5089344;28;42129;-83
2022/01/29 11:01:58;;;;;;;1.73;1.20;;;;;;;6.67;79.67;99899.16;5089951;28;42172;-85
2022/01/29 11:04:28;;;;;;;4.27;1.20;;;;;;;6.98;78.95;99895.56;5090269;28;38949;-86
2022/01/29 11:07:02;;;;;;;2.10;1.40;;;;;;;7.19;77.74;99902.78;5090213;28;40818;-85
2022/01/29 11:09:31;;;;;;;1.70;1.00;;;;;;;7.34;76.49;99902.28;5090107;28;41918;-84
2022/01/29 11:12:02;;;;;;;2.27;1.43;;;;;;;7.43;76.09;99911.66;5092751;28;40707;-81
2022/01/29 11:14:31;;;;;;;2.23;1.60;;;;;;;7.43;75.10;99891.44;5089995;28;38663;-83
2022/01/29 11:17:00;;;;;;;1.20;1.10;;;;;;;7.50;74.41;99882.44;5090367;28;41782;-82
2022/01/29 11:19:27;;;;;;;3.30;1.33;;;;;;;7.42;74.04;99871.25;5089999;28;43017;-86
2022/01/29 11:22:00;;;;;;;1.63;1.10;;;;;;;7.41;74.03;99851.13;5106997;28;42206;-85
2022/01/29 11:24:29;;;;;;;1.83;1.27;;;;;;;7.44;73.43;99835.19;5107658;28;39042;-86
2022/01/29 11:26:56;;;;;;;1.20;1.10;;;;;;;7.75;73.00;99876.31;5107259;28;40429;-87
2022/01/29 11:29:31;;;;;;;2.10;1.23;;;;;;;7.68;72.63;99857.19;5090002;28;42760;-83
2022/01/29 11:32:35;;;;;;;1.17;1.00;;;;;;;7.85;73.03;99867.16;5090276;28;40868;-85
2022/01/29 11:35:25;;;;;;;1.57;1.03;;;;;;;7.88;72.60;99864.44;5090448;28;39025;-86
2022/01/29 11:38:08;;;;;;;1.20;1.00;;;;;;;7.83;72.59;99842.63;5071404;28;41548;-84
2022/01/29 11:40:38;;;;;;;0.90;0.90;;;;;;;7.97;72.55;99847.41;5090256;28;41158;-84
2022/01/29 11:43:26;;;;;;;0.80;0.80;;;;;;;8.04;72.23;99852.38;5106113;28;42359;-82
2022/01/29 11:45:58;;;;;;;1.33;0.70;;;;;;;7.99;71.64;99837.66;5089704;28;39945;-87
2022/01/29 11:48:57;;;;;;;0.87;0.87;;;;;;;8.06;71.55;99850.56;5089866;28;41975;-85
2022/01/29 11:51:45;;;;;;;1.23;0.83;;;;;;;8.03;71.59;99821.69;5087501;28;41640;-85
2022/01/29 11:54:49;;;;;;;0.90;0.90;;;;;;;8.05;71.20;99851.47;5089544;28;42030;-84
2022/01/29 11:57:17;;;;;;;1.20;1.10;;;;;;;8.01;71.00;99841.97;5072425;28;38889;-84
2022/01/29 11:59:45;;;;;;;2.23;1.03;;;;;;;7.98;71.24;99831.53;5088587;28;40591;-81
2022/01/29 12:02:36;;;;;;;1.30;0.80;;;;;;;8.11;70.81;99843.34;5097109;28;41851;-84
2022/01/29 12:05:08;;;;;;;1.33;1.20;;;;;;;8.07;71.15;99817.13;5075465;28;41183;-85
2022/01/29 12:08:07;;;;;;;0.97;0.87;;;;;;;8.18;70.95;99828.13;5074021;28;40226;-83
2022/01/29 12:10:37;;;;;;;1.37;1.27;;;;;;;8.07;70.66;99799.53;5075945;28;40617;-85
2022/01/29 12:13:14;;;;;;;1.00;0.90;;;;;;;8.21;70.34;99799.88;5076606;28;41998;-83
2022/01/29 12:15:42;;;;;;;1.43;0.80;;;;;;;8.21;70.37;99780.53;5079691;28;42146;-82
2022/01/29 12:18:26;;;;;;;1.73;1.07;;;;;;;8.23;70.02;99783.97;5076955;28;38967;-83
2022/01/29 12:20:53;;;;;;;1.53;1.30;;;;;;;8.10;69.93;99762.47;5095804;28;41728;-84
2022/01/29 12:23:22;;;;;;;3.13;1.47;;;;;;;8.14;69.93;99742.97;5083940;28;43024;-82
2022/01/29 12:25:56;;;;;;;1.37;1.17;;;;;;;8.34;70.08;99754.56;5077475;28;42244;-82
2022/01/29 12:28:24;;;;;;;1.53;1.23;;;;;;;8.44;69.75;99762.06;5090459;28;39892;-84
2022/01/29 12:30:52;;;;;;;3.13;0.97;;;;;;;8.53;69.66;99747.66;5075002;28;40502;-85
2022/01/29 12:33:23;;;;;;;1.07;0.97;;;;;;;8.61;68.75;99764.03;5075699;28;42985;-83
2022/01/29 12:35:56;;;;;;;1.40;1.30;;;;;;;8.59;69.04;99765.88;5075735;28;41021;-84
2022/01/29 12:38:28;;;;;;;1.30;1.20;;;;;;;8.48;69.10;99736.41;5089980;28;39605;-80
2022/01/29 12:40:58;;;;;;;1.30;1.20;;;;;;;8.48;69.07;99749.59;5092521;28;41820;-81
2022/01/29 12:43:30;;;;;;;2.07;1.47;;;;;;;8.29;68.96;99742.38;5070282;28;42083;-82
2022/01/29 12:46:13;;;;;;;3.00;1.50;;;;;;;8.34;69.04;99744.00;5074688;28;41552;-83
2022/01/29 12:48:43;;;;;;;1.13;1.00;;;;;;;8.32;69.15;99736.16;5071493;28;39245;-82
2022/01/29 12:51:13;;;;;;;1.30;1.20;;;;;;;8.37;69.35;99733.34;5073341;28;40612;-82
2022/01/29 12:53:43;;;;;;;1.97;1.10;;;;;;;8.28;69.14;99732.72;5086854;28;42554;-81
2022/01/29 12:56:13;;;;;;;1.00;0.93;;;;;;;8.17;68.84;99737.56;5074407;28;41132;-81
2022/01/29 12:58:43;;;;;;;1.40;1.20;;;;;;;8.09;68.97;99717.69;5069445;28;39250;-82
2022/01/29 13:01:13;;;;;;;1.70;1.10;;;;;;;8.04;68.74;99725.75;5105005;28;41784;-80
2022/01/29 13:03:41;;;;;;;1.60;1.27;;;;;;;7.85;69.33;99706.28;5073077;28;41572;-82
2022/01/29 13:06:11;;;;;;;2.53;1.00;;;;;;;7.86;69.53;99710.66;5074218;28;41211;-83
2022/01/29 13:08:39;;;;;;;1.47;1.27;;;;;;;7.88;69.74;99708.81;5090766;28;38745;-81
2022/01/29 13:11:26;;;;;;;3.70;2.00;;;;;;;7.85;69.60;99690.47;5072397;28;40621;-82
2022/01/29 13:13:54;;;;;;;2.27;1.43;;;;;;;7.86;69.35;99694.84;5071782;28;42067;-81
2022/01/29 13:16:22;;;;;;;2.20;1.83;;;;;;;7.85;69.60;99688.69;5091447;28;42501;-81
2022/01/29 13:18:50;;;;;;;3.23;1.60;;;;;;;7.89;69.89;99702.63;5074050;28;39137;-82
2022/01/29 13:21:19;;;;;;;2.60;1.83;;;;;;;7.85;70.18;99706.28;5074335;28;41684;-82
2022/01/29 13:23:47;;;;;;;2.17;1.53;;;;;;;7.79;70.90;99703.91;5074090;28;41746;-81
2022/01/29 13:26:16;;;;;;;2.87;2.03;;;;;;;7.72;71.16;99697.97;5065793;28;41189;-83
2022/01/29 13:28:48;;;;;;;2.30;1.93;;;;;;;7.55;71.39;99685.41;5091515;28;40008;-82
2022/01/29 13:31:17;;;;;;;3.30;1.90;;;;;;;7.49;72.00;99676.91;5074378;28;40658;-82
2022/01/29 13:33:46;;;;;;;2.00;1.80;;;;;;;7.28;72.76;99648.69;5090777;28;43807;-81
2022/01/29 13:36:14;;;;;;;3.97;1.73;;;;;;;7.19;73.75;99655.16;5072814;28;41324;-82
2022/01/29 13:38:43;;;;;;;3.30;1.83;;;;;;;7.15;73.76;99637.75;5090698;28;39899;-80
2022/01/29 13:41:20;;;;;;;2.87;1.47;;;;;;;7.27;74.04;99658.38;5091654;28;41560;-83
2022/01/29 13:43:49;;;;;;;3.53;1.80;;;;;;;7.20;74.44;99663.00;5088044;28;42365;-83
2022/01/29 13:46:21;;;;;;;3.30;2.10;;;;;;;7.00;74.97;99639.16;5073112;28;41106;-81
2022/01/29 13:48:52;;;;;;;4.00;1.77;;;;;;;6.92;75.61;99648.25;5073615;28;38946;-82
2022/01/29 13:51:31;;;;;;;2.90;2.10;;;;;;;6.88;75.70;99644.00;5090003;28;41761;-83
2022/01/29 13:54:00;;;;;;;1.47;1.37;;;;;;;6.63;76.13;99597.47;5089100;28;41353;-85
2022/01/29 13:56:29;;;;;;;1.90;1.50;;;;;;;6.72;76.81;99620.81;5104957;28;41718;-84
2022/01/29 13:59:01;;;;;;;2.57;1.50;;;;;;;6.68;77.05;99629.72;5090353;28;39183;-82
2022/01/29 14:01:39;;;;;;;2.63;1.40;;;;;;;6.47;77.07;99596.25;5073935;28;41002;-83
2022/01/29 14:04:08;;;;;;;1.87;1.57;;;;;;;6.73;77.41;99645.38;5072311;28;41907;-82
2022/01/29 14:06:39;;;;;;;2.47;2.00;;;;;;;6.62;77.38;99643.13;5073363;28;41578;-83
2022/01/29 14:09:15;;;;;;;1.60;1.50;;;;;;;6.56;77.80;99638.03;5073270;28;39014;-81
2022/01/29 14:12:08;;;;;;;1.83;1.40;;;;;;;6.59;78.04;99661.63;5090315;28;40617;-82
2022/01/29 14:14:40;;;;;;;1.30;1.20;;;;;;;6.38;78.85;99639.53;5081921;28;42907;-82
2022/01/29 14:17:10;;;;;;;1.57;1.43;;;;;;;6.48;78.52;99650.59;5089983;28;41118;-82
2022/01/29 14:19:39;;;;;;;1.90;1.30;;;;;;;6.31;78.64;99629.25;5073422;28;38956;-82
2022/01/29 14:22:08;;;;;;;2.10;1.50;;;;;;;6.44;78.74;99631.41;5070067;28;41593;-82
2022/01/29 14:24:37;;;;;;;1.47;1.37;;;;;;;6.36;78.65;99604.53;5089784;28;42163;-86
2022/01/29 14:27:05;;;;;;;1.80;1.47;;;;;;;6.33;78.42;99601.13;5071657;28;43890;-84
2022/01/29 14:29:35;;;;;;;2.40;1.27;;;;;;;6.34;78.68;99608.09;5071108;28;39303;-85
2022/01/29 14:32:05;;;;;;;2.40;1.70;;;;;;;6.32;79.11;99629.19;5088528;28;41709;-83
2022/01/29 14:34:33;;;;;;;1.40;1.10;;;;;;;6.46;79.10;99634.00;5088934;28;42584;-84
2022/01/29 14:37:01;;;;;;;1.47;1.30;;;;;;;6.48;78.77;99633.03;5088101;28;42852;-84
2022/01/29 14:39:30;;;;;;;2.70;1.30;;;;;;;6.52;79.13;99615.41;5088961;28;40276;-83
2022/01/29 14:42:02;;;;;;;2.27;1.27;;;;;;;6.53;78.82;99611.84;5071862;28;42384;-85
2022/01/29 14:44:32;;;;;;;2.00;1.10;;;;;;;6.43;79.20;99615.69;5084218;28;42641;-84
2022/01/29 14:47:00;;;;;;;2.30;1.40;;;;;;;6.51;79.38;99633.84;5071433;28;41074;-83
2022/01/29 14:49:29;;;;;;;2.00;1.43;;;;;;;6.45;80.17;99634.91;5088586;28;41351;-82
2022/01/29 14:52:03;;;;;;;4.57;1.77;;;;;;;6.46;80.52;99639.25;5071211;28;40400;-82
2022/01/29 14:54:31;;;;;;;2.97;1.30;;;;;;;6.41;80.53;99621.03;5084451;28;43411;-84
2022/01/29 14:56:59;;;;;;;2.80;1.57;;;;;;;6.38;80.56;99628.16;5091985;28;42567;-83
2022/01/29 14:59:26;;;;;;;1.83;1.50;;;;;;;6.35;80.95;99607.19;5090287;28;41407;-84
2022/01/29 15:01:54;;;;;;;1.53;1.33;;;;;;;6.43;81.23;99618.31;5088858;28;41732;-84
2022/01/29 15:04:22;;;;;;;2.13;1.30;;;;;;;6.46;81.30;99615.59;5071076;28;41837;-82
2022/01/29 15:06:51;;;;;;;1.33;1.23;;;;;;;6.45;81.40;99621.75;5088461;28;42442;-83
